Time;durP1;ratioP1;P1;durP2;ratioP2;P2;SDS_P1;SDS_P2;PMS_P1;PMS_P2;Temp;Humidity;BMP_temperature;BMP_pressure;BME280_temperature;BME280_humidity;BME280_pressure;Samples;Min_cycle;Max_cycle;Signal;HPM_P1;HPM_P2
2022/12/20 00:01:14;;;;;;;61.70;26.47;;;0.30;99.90;;;;;;5043243;28;20232;-79
2022/12/20 00:04:05;;;;;;;57.17;26.00;;;0.30;99.90;;;;;;5059232;28;20975;-79
2022/12/20 00:06:55;;;;;;;58.43;27.53;;;0.30;99.90;;;;;;5040546;28;20645;-79
2022/12/20 00:09:44;;;;;;;51.07;24.73;;;0.30;99.90;;;;;;5054254;28;20763;-79
2022/12/20 00:12:33;;;;;;;55.30;25.40;;;0.40;99.90;;;;;;5040385;28;20227;-77
2022/12/20 00:15:21;;;;;;;55.87;26.07;;;0.30;99.90;;;;;;5056974;28;20227;-77
2022/12/20 00:18:11;;;;;;;57.57;25.93;;;0.30;99.90;;;;;;5055362;28;20223;-78
2022/12/20 00:20:59;;;;;;;59.97;26.80;;;0.40;99.90;;;;;;5047396;28;20220;-76
2022/12/20 00:23:49;;;;;;;53.90;26.03;;;0.40;99.90;;;;;;5034136;28;20235;-77
2022/12/20 00:26:38;;;;;;;55.07;26.73;;;0.40;99.90;;;;;;5057780;28;20227;-78
2022/12/20 00:29:27;;;;;;;55.97;26.77;;;0.40;99.90;;;;;;5042929;28;20228;-77
2022/12/20 00:32:16;;;;;;;56.00;25.90;;;0.50;99.90;;;;;;5040734;28;20227;-77
2022/12/20 00:35:06;;;;;;;57.43;26.60;;;0.50;99.90;;;;;;5048711;28;20220;-78
2022/12/20 00:37:54;;;;;;;55.37;25.43;;;0.50;99.90;;;;;;5036713;28;20224;-77
2022/12/20 00:40:44;;;;;;;53.47;25.20;;;0.50;99.90;;;;;;5043932;28;20753;-77
2022/12/20 00:43:34;;;;;;;54.97;26.50;;;0.50;99.90;;;;;;5063186;28;20846;-77
2022/12/20 00:46:24;;;;;;;62.50;26.23;;;0.60;99.90;;;;;;5051306;28;20564;-77
2022/12/20 00:49:14;;;;;;;52.00;25.50;;;0.50;99.90;;;;;;5055362;28;20228;-76
2022/12/20 00:52:02;;;;;;;52.97;25.93;;;0.60;99.90;;;;;;5039937;28;20232;-77
2022/12/20 00:54:51;;;;;;;60.77;25.93;;;0.70;99.90;;;;;;5054139;28;20232;-76
2022/12/20 00:57:41;;;;;;;62.10;27.27;;;0.70;99.90;;;;;;5047815;28;20234;-77
2022/12/20 01:00:30;;;;;;;53.57;26.03;;;0.70;99.90;;;;;;5062793;28;20650;-78
2022/12/20 01:03:19;;;;;;;55.70;26.10;;;0.70;99.90;;;;;;5060197;28;20592;-77
2022/12/20 01:06:09;;;;;;;53.23;25.27;;;0.80;99.90;;;;;;5048526;28;20349;-77
2022/12/20 01:08:58;;;;;;;55.77;26.57;;;0.80;99.90;;;;;;5058450;28;20225;-79
2022/12/20 01:11:49;;;;;;;53.30;25.50;;;0.80;99.90;;;;;;5062984;28;20383;-78
2022/12/20 01:14:39;;;;;;;50.80;25.77;;;0.80;99.90;;;;;;5050826;28;20977;-77
2022/12/20 01:17:28;;;;;;;54.63;24.87;;;0.90;99.90;;;;;;5055177;28;20232;-78
2022/12/20 01:20:16;;;;;;;53.27;25.17;;;0.90;99.90;;;;;;5045847;28;20224;-77
2022/12/20 01:23:05;;;;;;;57.77;26.53;;;1.00;99.90;;;;;;5046510;28;20235;-76
2022/12/20 01:25:54;;;;;;;52.70;25.13;;;1.00;99.90;;;;;;5041730;28;20715;-77
2022/12/20 01:28:45;;;;;;;52.77;24.37;;;1.00;99.90;;;;;;5043959;28;20993;-77
2022/12/20 01:31:36;;;;;;;54.10;26.13;;;1.00;99.90;;;;;;5046963;28;20221;-77
2022/12/20 01:34:25;;;;;;;48.67;25.63;;;1.10;99.90;;;;;;5046341;28;20611;-77
2022/12/20 01:37:14;;;;;;;45.63;24.37;;;1.10;99.90;;;;;;5044376;28;20248;-77
2022/12/20 01:40:02;;;;;;;45.80;23.50;;;1.10;99.90;;;;;;5059839;28;20234;-77
2022/12/20 01:42:51;;;;;;;53.37;24.97;;;1.20;99.90;;;;;;5063705;28;20668;-77
2022/12/20 01:45:40;;;;;;;51.87;24.77;;;1.20;99.90;;;;;;5055492;28;20232;-77
2022/12/20 01:48:30;;;;;;;46.57;24.33;;;1.30;99.90;;;;;;5052550;28;20228;-77
2022/12/20 01:51:20;;;;;;;55.17;25.87;;;1.20;99.90;;;;;;5047821;28;20212;-78
2022/12/20 01:54:14;;;;;;;54.27;25.60;;;1.20;99.90;;;;;;5047541;28;20274;-77
2022/12/20 01:57:09;;;;;;;51.17;24.37;;;1.30;99.90;;;;;;5048218;28;21091;-77
2022/12/20 01:59:58;;;;;;;50.57;23.97;;;1.30;99.90;;;;;;5047009;28;20216;-76
2022/12/20 02:02:49;;;;;;;49.00;25.13;;;1.40;99.90;;;;;;5047223;28;20233;-77
2022/12/20 02:05:43;;;;;;;56.70;26.83;;;1.30;99.90;;;;;;5038087;28;20342;-77
2022/12/20 02:08:31;;;;;;;52.50;24.67;;;1.30;99.90;;;;;;5059705;28;20629;-75
2022/12/20 02:11:46;;;;;;;48.53;23.90;;;1.40;99.90;;;;;;5062335;28;21060;-78
2022/12/20 02:14:58;;;;;;;48.63;22.90;;;1.40;99.90;;;;;;5047883;28;20220;-77
2022/12/20 02:17:57;;;;;;;48.83;24.00;;;1.50;99.90;;;;;;5039515;28;20223;-79
2022/12/20 02:21:23;;;;;;;46.93;23.73;;;1.50;99.90;;;;;;5043836;28;20220;-79
2022/12/20 02:24:41;;;;;;;47.30;22.93;;;1.50;99.90;;;;;;5063576;28;20228;-78
2022/12/20 02:27:45;;;;;;;45.30;23.93;;;1.50;99.90;;;;;;5045627;28;20232;-79
2022/12/20 02:30:40;;;;;;;47.47;23.50;;;1.50;99.90;;;;;;5040530;28;20232;-78
2022/12/20 02:33:30;;;;;;;47.93;23.10;;;1.50;99.90;;;;;;5060082;28;20228;-77
2022/12/20 02:36:18;;;;;;;52.33;24.10;;;1.60;99.90;;;;;;5064287;28;20220;-78
2022/12/20 02:39:14;;;;;;;50.30;24.07;;;1.60;99.90;;;;;;5045714;28;20222;-77
2022/12/20 02:42:06;;;;;;;49.50;23.73;;;1.60;99.90;;;;;;5045377;28;20219;-77
2022/12/20 02:45:15;;;;;;;49.07;24.13;;;1.70;99.90;;;;;;5053813;28;20893;-77
2022/12/20 02:48:08;;;;;;;50.50;23.13;;;1.60;99.90;;;;;;5041907;28;20228;-77
2022/12/20 02:51:00;;;;;;;48.70;23.50;;;1.70;99.90;;;;;;5044755;28;20236;-78
2022/12/20 02:53:50;;;;;;;45.27;22.30;;;1.60;99.90;;;;;;5043988;28;20573;-79
2022/12/20 02:56:43;;;;;;;46.83;22.83;;;1.70;99.90;;;;;;5043149;28;20972;-77
2022/12/20 02:59:37;;;;;;;47.53;22.83;;;1.70;99.90;;;;;;5042825;28;20259;-78
2022/12/20 03:02:27;;;;;;;43.13;22.37;;;1.70;99.90;;;;;;5056592;28;20960;-78
2022/12/20 03:05:20;;;;;;;42.20;21.93;;;1.80;99.90;;;;;;5046617;28;20743;-78
2022/12/20 03:08:10;;;;;;;42.67;21.33;;;1.80;99.90;;;;;;5047413;28;20220;-78
2022/12/20 03:10:59;;;;;;;44.47;24.00;;;1.80;99.90;;;;;;5042823;28;20217;-78
2022/12/20 03:13:49;;;;;;;42.57;22.27;;;1.80;99.90;;;;;;5055701;28;20231;-78
2022/12/20 03:16:38;;;;;;;46.97;22.23;;;1.80;99.90;;;;;;5033992;28;20343;-78
2022/12/20 03:19:28;;;;;;;45.83;23.07;;;1.90;99.90;;;;;;5043532;28;20231;-79
2022/12/20 03:22:19;;;;;;;40.63;21.83;;;1.90;99.90;;;;;;5043084;28;20219;-78
2022/12/20 03:25:08;;;;;;;42.97;21.83;;;1.90;99.90;;;;;;5034479;28;20227;-78
2022/12/20 03:27:57;;;;;;;36.50;20.30;;;1.90;99.90;;;;;;5046770;28;20224;-77
2022/12/20 03:30:47;;;;;;;41.97;21.47;;;1.90;99.90;;;;;;5042317;28;20224;-77
2022/12/20 03:33:36;;;;;;;42.37;21.33;;;1.90;99.90;;;;;;5041191;28;20302;-76
2022/12/20 03:36:27;;;;;;;43.27;20.97;;;2.00;99.90;;;;;;5042427;28;20224;-77
2022/12/20 03:39:21;;;;;;;41.53;21.33;;;2.00;99.90;;;;;;5029394;28;20248;-76
2022/12/20 03:42:11;;;;;;;46.03;22.10;;;2.00;99.90;;;;;;5047535;28;20247;-76
2022/12/20 03:45:00;;;;;;;42.73;20.60;;;2.00;99.90;;;;;;5046182;28;20221;-76
2022/12/20 03:47:51;;;;;;;40.97;20.70;;;2.00;99.90;;;;;;5041016;28;21069;-77
2022/12/20 03:50:40;;;;;;;43.90;20.93;;;2.00;99.90;;;;;;5061536;28;20243;-75
2022/12/20 03:53:30;;;;;;;41.83;21.63;;;2.00;99.90;;;;;;5043213;28;20213;-76
2022/12/20 03:56:20;;;;;;;38.80;20.23;;;2.10;99.90;;;;;;5046557;28;20226;-80
2022/12/20 03:59:09;;;;;;;39.70;20.33;;;2.10;99.90;;;;;;5036426;28;20243;-76
2022/12/20 04:01:58;;;;;;;40.73;21.17;;;2.10;99.90;;;;;;5038512;28;20236;-76
2022/12/20 04:04:48;;;;;;;39.80;20.63;;;2.20;99.90;;;;;;5052762;28;20228;-76
2022/12/20 04:07:37;;;;;;;37.33;20.07;;;2.10;99.90;;;;;;5054954;28;20223;-77
2022/12/20 04:10:26;;;;;;;37.77;20.07;;;2.10;99.90;;;;;;5029860;28;20345;-78
2022/12/20 04:13:16;;;;;;;40.20;20.63;;;2.10;99.90;;;;;;5040721;28;20222;-79
2022/12/20 04:16:06;;;;;;;39.90;20.43;;;2.10;99.90;;;;;;5043452;28;20265;-78
2022/12/20 04:18:58;;;;;;;38.00;19.93;;;2.20;99.90;;;;;;5059998;28;20225;-78
2022/12/20 04:21:51;;;;;;;40.90;19.47;;;2.20;99.90;;;;;;5043549;28;20229;-77
2022/12/20 04:24:41;;;;;;;43.43;20.50;;;2.20;99.90;;;;;;5060361;28;20662;-76
2022/12/20 04:27:38;;;;;;;38.03;19.57;;;2.20;99.90;;;;;;5039283;28;20327;-77
2022/12/20 04:30:29;;;;;;;42.27;20.40;;;2.20;99.90;;;;;;5038405;28;20248;-77
2022/12/20 04:33:20;;;;;;;37.53;19.30;;;2.20;99.90;;;;;;5041693;28;20217;-76
2022/12/20 04:36:09;;;;;;;39.07;19.17;;;2.30;99.90;;;;;;5045872;28;20229;-76
2022/12/20 04:39:00;;;;;;;36.40;19.67;;;2.30;99.90;;;;;;5042893;28;20236;-77
2022/12/20 04:41:55;;;;;;;40.37;20.13;;;2.30;99.90;;;;;;5042410;28;20228;-77
2022/12/20 04:44:43;;;;;;;37.50;19.53;;;2.30;99.90;;;;;;5040878;28;20221;-76
2022/12/20 04:47:34;;;;;;;40.47;20.20;;;2.30;99.90;;;;;;5043683;28;20383;-77
2022/12/20 04:50:23;;;;;;;37.30;18.83;;;2.40;99.90;;;;;;5048441;28;20231;-76
2022/12/20 04:56:20;;;;;;;42.10;19.47;;;2.40;99.90;;;;;;5054686;28;20891;-75
2022/12/20 04:59:09;;;;;;;37.60;19.23;;;2.40;99.90;;;;;;5046746;28;20221;-77
2022/12/20 05:01:59;;;;;;;36.40;19.53;;;2.40;99.90;;;;;;5040827;28;20767;-78
2022/12/20 05:05:10;;;;;;;36.27;18.97;;;2.50;99.90;;;;;;5051866;28;20573;-77
2022/12/20 05:08:06;;;;;;;36.40;19.47;;;2.50;99.90;;;;;;5051537;28;20388;-78
2022/12/20 05:10:57;;;;;;;35.93;19.20;;;2.40;99.90;;;;;;5043042;28;20225;-79
2022/12/20 05:13:46;;;;;;;36.13;18.57;;;2.50;99.90;;;;;;5043863;28;20315;-80
2022/12/20 05:16:37;;;;;;;36.93;18.17;;;2.40;99.90;;;;;;5038889;28;20943;-78
2022/12/20 05:19:27;;;;;;;42.23;19.57;;;2.40;99.90;;;;;;5042320;28;20234;-77
2022/12/20 05:28:36;;;;;;;38.87;18.57;;;2.50;99.90;;;;;;5044552;28;20230;-77
2022/12/20 05:31:25;;;;;;;36.93;18.60;;;2.50;99.90;;;;;;5046255;28;20228;-78
2022/12/20 05:34:14;;;;;;;34.40;18.33;;;2.60;99.90;;;;;;5064725;28;20238;-77
2022/12/20 05:37:09;;;;;;;34.87;18.57;;;2.60;99.90;;;;;;5049195;28;20869;-77
2022/12/20 05:40:03;;;;;;;35.20;19.00;;;2.60;99.90;;;;;;5047256;28;20309;-77
2022/12/20 05:42:53;;;;;;;33.97;18.43;;;2.60;99.90;;;;;;5045833;28;20712;-77
2022/12/20 05:45:51;;;;;;;33.63;17.23;;;2.60;99.90;;;;;;5045903;28;20225;-79
2022/12/20 05:48:49;;;;;;;38.63;18.33;;;2.60;99.90;;;;;;5037689;28;20222;-79
2022/12/20 05:51:37;;;;;;;40.50;21.07;;;2.60;99.90;;;;;;5046373;28;20608;-77
2022/12/20 05:54:43;;;;;;;39.07;17.47;;;2.60;99.90;;;;;;5041854;28;20736;-78
2022/12/20 05:57:37;;;;;;;36.23;17.97;;;2.60;99.90;;;;;;5046876;28;20363;-78
2022/12/20 06:00:26;;;;;;;30.50;17.27;;;2.70;99.90;;;;;;5046362;28;20233;-79
2022/12/20 06:03:15;;;;;;;39.33;18.77;;;2.70;99.90;;;;;;5046855;28;20243;-78
2022/12/20 06:06:06;;;;;;;33.60;17.33;;;2.70;99.90;;;;;;5057517;28;20233;-76
2022/12/20 06:09:02;;;;;;;31.23;17.47;;;2.70;99.90;;;;;;5045302;28;20271;-77
2022/12/20 06:12:00;;;;;;;35.80;16.87;;;2.80;99.90;;;;;;5048564;28;20227;-76
2022/12/20 06:14:51;;;;;;;36.03;18.37;;;2.80;99.90;;;;;;5045855;28;20704;-76
2022/12/20 06:17:41;;;;;;;34.63;16.77;;;2.80;99.90;;;;;;5043570;28;20835;-76
2022/12/20 06:20:30;;;;;;;35.33;17.03;;;2.80;99.90;;;;;;5032615;28;20321;-77
2022/12/20 06:23:22;;;;;;;35.13;17.47;;;2.90;99.90;;;;;;5043928;28;20264;-78
2022/12/20 06:26:26;;;;;;;33.87;16.97;;;2.90;99.90;;;;;;5048765;28;20821;-77
2022/12/20 06:29:16;;;;;;;36.33;16.90;;;2.80;99.90;;;;;;5042753;28;20230;-78
2022/12/20 06:32:12;;;;;;;31.80;16.60;;;2.80;99.90;;;;;;5046579;28;20220;-77
2022/12/20 06:35:01;;;;;;;33.27;17.03;;;2.80;99.90;;;;;;5044421;28;20232;-78
2022/12/20 06:37:51;;;;;;;30.83;16.30;;;2.80;99.90;;;;;;5045210;28;20226;-78
2022/12/20 06:40:40;;;;;;;31.63;16.23;;;2.80;99.90;;;;;;5040279;28;20643;-77
2022/12/20 06:43:29;;;;;;;31.97;16.73;;;2.90;99.90;;;;;;5051511;28;20236;-78
2022/12/20 06:46:18;;;;;;;33.43;17.87;;;2.80;99.90;;;;;;5043567;28;20214;-76
2022/12/20 06:49:08;;;;;;;31.97;16.40;;;2.90;99.90;;;;;;5060550;28;20229;-76
2022/12/20 06:51:57;;;;;;;29.83;15.70;;;2.80;99.90;;;;;;5044491;28;20222;-76
2022/12/20 06:54:55;;;;;;;32.40;17.23;;;2.90;99.90;;;;;;5041625;28;20310;-75
2022/12/20 06:57:44;;;;;;;36.33;16.57;;;3.00;99.90;;;;;;5038842;28;20237;-75
2022/12/20 07:00:34;;;;;;;32.13;17.37;;;2.90;99.90;;;;;;5056328;28;20576;-76
2022/12/20 07:03:22;;;;;;;37.00;17.07;;;3.00;99.90;;;;;;5052375;28;20226;-76
2022/12/20 07:06:13;;;;;;;33.07;18.00;;;2.90;99.90;;;;;;5038669;28;20587;-78
2022/12/20 07:09:01;;;;;;;32.70;17.67;;;3.00;99.90;;;;;;5054852;28;20964;-77
2022/12/20 07:11:50;;;;;;;31.90;17.63;;;3.00;99.90;;;;;;5044010;28;20235;-77
2022/12/20 07:14:39;;;;;;;33.93;17.80;;;3.00;99.90;;;;;;5042001;28;20817;-77
2022/12/20 07:17:28;;;;;;;34.37;17.80;;;3.00;99.90;;;;;;5055798;28;20227;-77
2022/12/20 07:20:18;;;;;;;35.67;16.77;;;3.10;99.90;;;;;;5058008;28;20710;-78
2022/12/20 07:23:08;;;;;;;32.83;17.50;;;3.10;99.90;;;;;;5056061;28;20268;-78
2022/12/20 07:25:58;;;;;;;30.30;16.70;;;3.10;99.90;;;;;;5058115;28;20226;-78
2022/12/20 07:28:46;;;;;;;33.10;16.83;;;3.10;99.90;;;;;;5041449;28;20303;-78
2022/12/20 07:31:35;;;;;;;33.40;17.00;;;3.20;99.90;;;;;;5036146;28;20227;-77
2022/12/20 07:34:24;;;;;;;30.60;16.67;;;3.20;99.90;;;;;;5050184;28;20241;-78
2022/12/20 07:37:13;;;;;;;34.63;17.57;;;3.20;99.90;;;;;;5043070;28;20241;-78
2022/12/20 07:40:04;;;;;;;30.60;16.50;;;3.20;99.90;;;;;;5037010;28;20224;-78
2022/12/20 07:42:52;;;;;;;35.30;18.30;;;3.20;99.90;;;;;;5041446;28;20227;-79
2022/12/20 07:45:41;;;;;;;36.13;18.40;;;3.30;99.90;;;;;;5035330;28;20227;-79
2022/12/20 07:48:31;;;;;;;31.67;17.17;;;3.30;99.90;;;;;;5038411;28;20243;-80
2022/12/20 07:51:24;;;;;;;36.83;17.97;;;3.40;99.90;;;;;;5037116;28;22335;-78
2022/12/20 07:54:18;;;;;;;34.90;18.17;;;3.40;99.90;;;;;;5058745;28;20219;-79
2022/12/20 07:57:12;;;;;;;33.93;17.60;;;3.40;99.90;;;;;;5061003;28;20277;-81
2022/12/20 08:00:03;;;;;;;32.73;17.77;;;3.50;99.90;;;;;;5058722;28;20852;-80
2022/12/20 08:03:04;;;;;;;34.33;17.37;;;3.50;99.90;;;;;;5057315;28;20223;-80
2022/12/20 08:05:57;;;;;;;33.13;17.20;;;3.50;99.90;;;;;;5057465;28;20222;-79
2022/12/20 08:08:50;;;;;;;32.73;18.33;;;3.50;99.90;;;;;;5037890;28;20256;-79
2022/12/20 08:11:41;;;;;;;35.10;17.50;;;3.40;99.90;;;;;;5054774;28;20218;-81
2022/12/20 08:14:32;;;;;;;35.57;17.63;;;3.50;99.90;;;;;;5054558;28;20253;-78
2022/12/20 08:17:20;;;;;;;34.00;17.27;;;3.50;99.90;;;;;;5039416;28;20230;-79
2022/12/20 08:20:13;;;;;;;38.07;19.20;;;3.50;99.90;;;;;;5042939;28;20230;-79
2022/12/20 08:23:03;;;;;;;34.43;17.23;;;3.60;99.90;;;;;;5035791;28;20324;-77
2022/12/20 08:25:52;;;;;;;31.63;16.30;;;3.60;99.90;;;;;;5054934;28;20219;-77
2022/12/20 08:28:41;;;;;;;34.13;17.70;;;3.50;99.90;;;;;;5035759;28;20895;-77
2022/12/20 08:31:31;;;;;;;32.73;18.00;;;3.60;99.90;;;;;;5036227;28;20222;-79
2022/12/20 08:34:21;;;;;;;35.27;17.57;;;3.60;99.90;;;;;;5056228;28;20276;-78
2022/12/20 08:37:09;;;;;;;31.37;17.73;;;3.60;99.90;;;;;;5042254;28;20216;-80
2022/12/20 08:40:03;;;;;;;35.27;18.33;;;3.70;99.90;;;;;;5038805;28;20233;-82
2022/12/20 08:42:51;;;;;;;33.50;16.83;;;3.70;99.90;;;;;;5042149;28;20944;-77
2022/12/20 08:45:40;;;;;;;32.67;18.40;;;3.80;99.90;;;;;;5053090;28;20371;-76
2022/12/20 08:48:31;;;;;;;36.57;19.17;;;3.70;99.90;;;;;;5058392;28;20235;-76
2022/12/20 08:51:20;;;;;;;36.10;17.60;;;3.80;99.90;;;;;;5057940;28;20519;-78
2022/12/20 08:54:08;;;;;;;34.43;17.87;;;3.80;99.90;;;;;;5039194;28;20763;-78
2022/12/20 08:56:57;;;;;;;30.70;17.80;;;3.90;99.90;;;;;;5039101;28;20242;-77
2022/12/20 08:59:46;;;;;;;36.87;17.30;;;3.90;99.90;;;;;;5042860;28;20214;-77
2022/12/20 09:02:40;;;;;;;30.90;17.33;;;3.90;99.90;;;;;;5058946;28;20694;-77
2022/12/20 09:05:30;;;;;;;33.30;18.10;;;3.90;99.90;;;;;;5059970;28;20231;-77
2022/12/20 09:08:19;;;;;;;37.17;19.17;;;3.80;99.90;;;;;;5057020;28;20227;-78
2022/12/20 09:11:10;;;;;;;36.20;19.27;;;3.90;99.90;;;;;;5050728;28;20231;-77
2022/12/20 09:14:00;;;;;;;37.20;19.03;;;3.90;99.90;;;;;;5047153;28;20226;-78
2022/12/20 09:16:49;;;;;;;33.20;17.97;;;4.00;99.90;;;;;;5048594;28;20722;-78
2022/12/20 09:19:38;;;;;;;33.80;18.27;;;4.00;99.90;;;;;;5044434;28;20226;-78
2022/12/20 09:22:30;;;;;;;35.03;19.63;;;4.20;99.90;;;;;;5042857;28;20297;-78
2022/12/20 09:25:19;;;;;;;30.63;17.83;;;4.20;99.90;;;;;;5056432;28;20250;-79
2022/12/20 09:28:08;;;;;;;31.10;17.93;;;4.30;99.90;;;;;;5059162;28;20926;-78
2022/12/20 09:30:59;;;;;;;34.33;18.63;;;4.40;99.90;;;;;;5054657;28;20238;-78
2022/12/20 09:33:49;;;;;;;38.47;19.77;;;4.40;99.90;;;;;;5044785;28;20226;-78
2022/12/20 09:36:38;;;;;;;36.20;19.00;;;4.40;99.90;;;;;;5064675;28;20318;-79
2022/12/20 09:39:28;;;;;;;34.53;19.07;;;4.40;99.90;;;;;;5039058;28;20225;-79
2022/12/20 09:42:26;;;;;;;31.80;18.73;;;4.50;99.90;;;;;;5041561;28;20250;-79
2022/12/20 09:45:24;;;;;;;33.90;19.30;;;4.50;99.90;;;;;;5055209;28;20243;-78
2022/12/20 09:48:19;;;;;;;37.97;19.77;;;4.60;99.90;;;;;;5044920;28;20224;-79
2022/12/20 09:51:19;;;;;;;36.27;18.93;;;4.60;99.90;;;;;;5058527;28;20260;-77
2022/12/20 09:54:19;;;;;;;36.97;19.97;;;4.70;99.90;;;;;;5063896;28;20228;-77
2022/12/20 09:57:19;;;;;;;38.63;20.33;;;4.70;99.90;;;;;;5045080;28;20224;-78
2022/12/20 10:00:13;;;;;;;35.20;19.30;;;4.80;99.90;;;;;;5047658;28;20216;-78
2022/12/20 10:03:04;;;;;;;38.37;19.80;;;4.70;99.90;;;;;;5041795;28;21130;-79
2022/12/20 10:06:00;;;;;;;37.87;20.00;;;4.70;99.90;;;;;;5035365;28;20216;-78
2022/12/20 10:08:55;;;;;;;38.90;20.40;;;4.70;99.90;;;;;;5047834;28;20677;-77
2022/12/20 10:12:02;;;;;;;36.30;19.47;;;4.60;99.90;;;;;;5046651;28;20607;-79
2022/12/20 10:15:10;;;;;;;36.57;19.27;;;4.80;99.90;;;;;;5041686;28;20225;-79
2022/12/20 10:18:24;;;;;;;38.43;21.50;;;4.70;99.90;;;;;;5038173;28;20774;-78
2022/12/20 10:21:20;;;;;;;39.60;20.33;;;4.70;99.90;;;;;;5045917;28;20848;-78
2022/12/20 10:24:16;;;;;;;35.17;20.13;;;4.70;99.90;;;;;;5040189;28;20229;-78
2022/12/20 10:27:12;;;;;;;37.67;19.83;;;4.70;99.90;;;;;;5041315;28;20696;-78
2022/12/20 10:30:10;;;;;;;41.40;23.23;;;4.60;99.90;;;;;;5043469;28;20722;-79
2022/12/20 10:32:59;;;;;;;42.00;21.43;;;4.70;99.90;;;;;;5027853;28;20229;-78
2022/12/20 10:35:49;;;;;;;44.00;21.40;;;4.70;99.90;;;;;;5045722;28;20379;-79
2022/12/20 10:38:45;;;;;;;38.73;21.23;;;4.80;99.90;;;;;;5040585;28;20232;-78
2022/12/20 10:41:47;;;;;;;37.73;20.50;;;4.80;99.90;;;;;;5028308;28;20949;-78
2022/12/20 10:44:37;;;;;;;42.50;21.07;;;4.90;99.90;;;;;;5058087;28;24242;-79
2022/12/20 10:47:37;;;;;;;39.47;21.57;;;5.00;99.90;;;;;;5053175;28;20618;-79
2022/12/20 10:50:28;;;;;;;39.77;20.93;;;5.00;99.90;;;;;;5041520;28;20220;-79
2022/12/20 10:53:26;;;;;;;39.33;21.20;;;5.10;99.90;;;;;;5054641;28;20996;-80
2022/12/20 10:56:21;;;;;;;38.00;21.03;;;5.00;99.90;;;;;;5041533;28;20239;-79
2022/12/20 10:59:28;;;;;;;37.80;21.90;;;5.00;99.90;;;;;;5038986;28;20274;-79
2022/12/20 11:02:26;;;;;;;37.50;21.00;;;5.00;99.90;;;;;;5052805;28;20232;-80
2022/12/20 11:05:28;;;;;;;40.67;21.67;;;5.00;99.90;;;;;;5061153;28;20224;-78
2022/12/20 11:08:18;;;;;;;42.30;22.27;;;5.00;99.90;;;;;;5042393;28;20227;-79
2022/12/20 11:11:28;;;;;;;43.07;21.30;;;5.10;99.90;;;;;;5054115;28;20246;-78
2022/12/20 11:14:20;;;;;;;42.03;23.30;;;5.10;99.90;;;;;;5041249;28;20227;-78
2022/12/20 11:17:21;;;;;;;36.47;20.53;;;5.20;99.90;;;;;;5057409;28;20242;-79
2022/12/20 11:20:32;;;;;;;43.40;22.23;;;5.30;99.90;;;;;;5042747;28;20214;-78
2022/12/20 11:23:30;;;;;;;38.70;21.73;;;5.40;99.90;;;;;;5040438;28;20541;-79
2022/12/20 11:26:33;;;;;;;43.93;23.30;;;5.30;99.90;;;;;;5043298;28;20228;-79
2022/12/20 11:29:37;;;;;;;42.50;21.77;;;5.30;99.90;;;;;;5052963;28;20227;-80
2022/12/20 11:32:39;;;;;;;41.17;21.73;;;5.10;99.90;;;;;;5055397;28;20225;-77
2022/12/20 11:35:49;;;;;;;40.77;22.67;;;5.10;99.90;;;;;;5039874;28;20295;-78
2022/12/20 11:38:42;;;;;;;41.13;21.40;;;5.20;99.90;;;;;;5043498;28;20220;-78
2022/12/20 11:41:41;;;;;;;40.03;22.63;;;5.10;99.90;;;;;;5052002;28;20607;-77
2022/12/20 11:44:45;;;;;;;38.60;21.10;;;5.00;99.90;;;;;;5056454;28;20608;-78
2022/12/20 11:48:14;;;;;;;41.10;21.60;;;5.00;99.90;;;;;;5037635;28;20224;-78
2022/12/20 11:51:15;;;;;;;45.10;22.50;;;5.10;99.90;;;;;;5037474;28;20219;-79
2022/12/20 11:54:20;;;;;;;38.90;21.83;;;5.10;99.90;;;;;;5053810;28;20228;-77
2022/12/20 11:57:17;;;;;;;44.17;22.33;;;5.20;99.90;;;;;;5052476;28;20228;-78
2022/12/20 12:00:07;;;;;;;42.67;21.40;;;5.30;99.90;;;;;;5053219;28;20670;-80
2022/12/20 12:03:09;;;;;;;40.00;22.03;;;5.30;99.90;;;;;;5038226;28;20297;-82
2022/12/20 12:06:02;;;;;;;42.57;22.53;;;5.40;99.90;;;;;;5049034;28;20230;-79
2022/12/20 12:08:58;;;;;;;45.90;22.20;;;5.40;99.90;;;;;;5050724;28;20231;-80
2022/12/20 12:11:50;;;;;;;43.43;22.37;;;5.50;99.90;;;;;;5035438;28;20220;-80
2022/12/20 12:15:01;;;;;;;40.70;22.00;;;5.60;99.90;;;;;;5035969;28;20344;-79
2022/12/20 12:17:59;;;;;;;41.40;22.33;;;5.50;99.90;;;;;;5043393;28;20232;-78
2022/12/20 12:20:57;;;;;;;41.40;21.97;;;5.60;99.90;;;;;;5051264;28;20587;-80
2022/12/20 12:24:05;;;;;;;41.17;22.57;;;5.50;99.90;;;;;;5043950;28;20587;-79
2022/12/20 12:26:54;;;;;;;40.83;22.03;;;5.60;99.90;;;;;;5041521;28;20216;-79
2022/12/20 12:29:43;;;;;;;39.53;21.97;;;5.60;99.90;;;;;;5054020;28;20591;-79
2022/12/20 12:32:39;;;;;;;40.03;22.47;;;5.60;99.90;;;;;;5038377;28;20564;-79
2022/12/20 12:36:16;;;;;;;45.07;22.10;;;5.70;99.90;;;;;;5044520;28;21256;-78
2022/12/20 12:39:30;;;;;;;38.90;21.93;;;5.60;99.90;;;;;;5058994;28;20707;-79
2022/12/20 12:42:42;;;;;;;45.63;24.10;;;5.50;99.90;;;;;;5057744;28;20215;-79
2022/12/20 12:45:37;;;;;;;41.70;23.13;;;5.50;99.90;;;;;;5062238;28;20223;-80
2022/12/20 12:48:38;;;;;;;49.63;25.80;;;5.40;99.90;;;;;;5041531;28;20223;-79
2022/12/20 12:51:31;;;;;;;44.07;23.23;;;5.40;99.90;;;;;;5048922;28;20226;-79
2022/12/20 12:54:26;;;;;;;47.47;23.40;;;5.40;99.90;;;;;;5047792;28;20224;-77
2022/12/20 12:57:16;;;;;;;41.57;23.30;;;5.40;99.90;;;;;;5058378;28;20232;-80
2022/12/20 13:00:47;;;;;;;47.10;22.93;;;5.40;99.90;;;;;;5055501;28;20256;-80
2022/12/20 13:03:40;;;;;;;41.33;22.23;;;5.30;99.90;;;;;;5057202;28;20227;-79
2022/12/20 13:06:56;;;;;;;40.73;23.37;;;5.30;99.90;;;;;;5058492;28;20246;-80
2022/12/20 13:09:46;;;;;;;45.43;25.03;;;5.30;99.90;;;;;;5045068;28;20220;-77
2022/12/20 13:12:57;;;;;;;40.13;23.07;;;5.30;99.90;;;;;;5056495;28;20307;-80
2022/12/20 13:15:52;;;;;;;45.00;23.60;;;5.30;99.90;;;;;;5055058;28;20227;-78
2022/12/20 13:19:03;;;;;;;45.40;24.43;;;5.40;99.90;;;;;;5045717;28;20240;-79
2022/12/20 13:21:56;;;;;;;50.03;24.03;;;5.30;99.90;;;;;;5041638;28;20782;-79
2022/12/20 13:24:56;;;;;;;46.73;24.70;;;5.30;99.90;;;;;;5057195;28;20600;-80
2022/12/20 13:27:44;;;;;;;43.77;23.87;;;5.40;99.90;;;;;;5029043;28;20763;-79
2022/12/20 13:30:33;;;;;;;48.30;23.47;;;5.40;99.90;;;;;;5056982;28;20944;-80
2022/12/20 13:33:24;;;;;;;39.67;23.17;;;5.40;99.90;;;;;;5044915;28;20911;-79
2022/12/20 13:36:36;;;;;;;46.47;24.23;;;5.30;99.90;;;;;;5036952;28;20216;-78
2022/12/20 13:39:47;;;;;;;41.37;22.73;;;5.40;99.90;;;;;;5051106;28;20619;-80
2022/12/20 13:42:42;;;;;;;46.70;23.07;;;5.30;99.90;;;;;;5051636;28;20232;-79
2022/12/20 13:45:32;;;;;;;45.70;24.30;;;5.30;99.90;;;;;;5047109;28;20220;-79
2022/12/20 13:48:29;;;;;;;41.60;22.93;;;5.20;99.90;;;;;;5042464;28;20224;-78
2022/12/20 13:51:19;;;;;;;42.20;23.40;;;5.30;99.90;;;;;;5054534;28;20629;-79
2022/12/20 23:45:45;;;;;;;45.93;23.30;;;4.30;99.90;;;;;;5065571;27;20561;-76
2022/12/20 23:48:34;;;;;;;52.70;25.67;;;4.50;99.90;;;;;;5086816;28;20307;-75
2022/12/20 23:51:23;;;;;;;47.43;24.83;;;4.30;99.90;;;;;;5108170;27;20248;-75
2022/12/20 23:54:12;;;;;;;44.60;22.37;;;;;;;;;;5094833;28;20214;-75
2022/12/20 23:57:01;;;;;;;45.03;24.40;;;4.20;99.90;;;;;;5105678;27;20942;-77
2022/12/20 23:59:50;;;;;;;46.93;24.70;;;4.20;99.90;;;;;;5124468;27;20585;-75
